Observations for Trim Market St
| Time | AQI | Temp °C | Hum % | Pres Pa | CO μg/m³ | H₂S μg/m³ | NO μg/m³ | NO₂ μg/m³ | O₃ μg/m³ | SO₂ μg/m³ | PM1 μg/m³ | PM2.5 μg/m³ | PM10 μg/m³ |
|---|---|---|---|---|---|---|---|---|---|---|---|---|---|
| Sunday 16 August 2026 | |||||||||||||
| 01:10 | 2 | 15.9 | 62 | 57,883 | 0.27 | 0 | 1.12 | 6.91 | 51.97 | 0 | 1.43 | 3.94 | 5.5 |
| 01:02 | 2 | 15.9 | 62 | 57,891 | 0.19 | 0 | 1.68 | 7.25 | 52.71 | 0 | 2.14 | 3.45 | 4.82 |
| 00:57 | 2 | 15.9 | 62 | 57,895 | 0.2 | 0 | 1.15 | 6.99 | 55.28 | 0 | 0.71 | 2.46 | 3.47 |
| 00:56 | 2 | 15.9 | 62 | 57,895 | 0.23 | 0 | 1.15 | 6.65 | 52.13 | 0 | 1.43 | 3.45 | 4.82 |
| 00:55 | 2 | 15.9 | 62 | 57,895 | 0.3 | 0 | 1.11 | 6.76 | 54.55 | 0 | 1.43 | 2.96 | 4.14 |
| 00:54 | 2 | 15.9 | 62 | 57,895 | 0.34 | 0 | 1.13 | 7.37 | 53.96 | 0 | 1.43 | 3.45 | 4.82 |
| 00:53 | 2 | 15.9 | 61 | 57,897 | 0.19 | 0 | 1.16 | 7.61 | 54.21 | 0 | 1.43 | 2.96 | 4.14 |
| 00:52 | 2 | 15.9 | 62 | 57,897 | 0.19 | 0 | 1.24 | 6.76 | 53.64 | 0 | 0.71 | 2.46 | 3.47 |
| 00:51 | 2 | 15.9 | 61 | 57,897 | 0.19 | 0 | 1.23 | 8.64 | 52.27 | 0 | 0.71 | 2.46 | 4.14 |
| 00:50 | 2 | 15.9 | 61 | 57,899 | 0.2 | 0 | 1.31 | 8.32 | 54.53 | 0 | 0.71 | 2.46 | 3.46 |
| 00:49 | 2 | 15.9 | 61 | 57,901 | 0.2 | 0 | 1.23 | 8.74 | 52.89 | 0 | 0.71 | 1.96 | 2.78 |
| 00:48 | 2 | 15.9 | 61 | 57,901 | 0.23 | 0 | 1.22 | 8.2 | 54.77 | 0 | 0.71 | 3.46 | 4.81 |
| 00:47 | 2 | 15.9 | 61 | 57,901 | 0.34 | 0 | 1.25 | 8.63 | 51.98 | 0 | 0.71 | 2.97 | 4.81 |
| 00:46 | 2 | 16 | 61 | 57,901 | 0.17 | 0 | 1.41 | 7.07 | 53.77 | 0 | 1.43 | 3.46 | 4.81 |
| 00:45 | 2 | 15.9 | 61 | 57,903 | 0.18 | 0 | 1.13 | 8.82 | 49.72 | 0 | 0.71 | 2.47 | 3.46 |
| 00:44 | 2 | 16 | 61 | 57,905 | 0.2 | 0 | 1.13 | 20.63 | 48.95 | 0 | 1.43 | 3.46 | 4.81 |
| 00:42 | 2 | 16 | 61 | 57,905 | 0.18 | 0 | 1.1 | 6.73 | 55.48 | 0 | 0.71 | 2.47 | 3.46 |
| 00:40 | 2 | 16 | 61 | 57,903 | 0.29 | 0 | 1.13 | 6.84 | 55.61 | 0 | 1.43 | 2.97 | 5.49 |
| 00:39 | 2 | 15.9 | 61 | 57,903 | 0.44 | 0 | 1.28 | 7.22 | 54.87 | 0 | 0.71 | 3.97 | 5.49 |
| 00:37 | 2 | 16 | 61 | 57,903 | 0.78 | 0 | 1.17 | 7.43 | 55.69 | 0 | 0.71 | 3.97 | 8.89 |